KHUA/HUA METAR and TAF weather

Enter ICAO airport designator
Station Type Date Time Source
KHUA METAR 2022/08/16 17:59 UTC NOAA

KHUA 161759Z COR 34007KT 7SM FEW030 BKN095 27/20 2999 RMK $ COR 1802


Station Type Date Time Source
KHUA Decoded METAR 2022/08/16 17:59 UTC NOAA

Station name not available
Aug 16, 2022 - 01:59 PM EDT / 2022.08.16 1759 UTC
Wind: from the NNW (340 degrees) at 8 MPH (7 KT):0
Visibility: 1 mile(s):0
Sky conditions: mostly cloudy
Temperature: 80 F (27 C)
Dew Point: 68 F (20 C)
Relative Humidity: 65%
ob: KHUA 161759Z COR 34007KT 7SM FEW030 BKN095 27/20 2999 RMK COR 1802
cycle: 18

Station Type Date Time Source
KHUA TAF 2022/08/16 12:10 UTC NOAA

TAF KHUA 161200Z 1612/1718 VRB06KT 9999 FEW010 QNH2994INS TX27/1619Z TN20/1711Z

Example: see airport list